Time;durP1;ratioP1;P1;durP2;ratioP2;P2;SDS_P1;SDS_P2;PMS_P1;PMS_P2;Temp;Humidity;BMP_temperature;BMP_pressure;BME280_temperature;BME280_humidity;BME280_pressure;Samples;Min_cycle;Max_cycle;Signal;HPM_P1;HPM_P2
2022/09/13 00:00:54;;;;;;;4.27;1.27;;;19.50;70.60;;;;;;5067205;28;20233;-75
2022/09/13 00:03:24;;;;;;;3.60;0.93;;;19.50;70.70;;;;;;5061102;28;20197;-75
2022/09/13 00:05:52;;;;;;;3.60;0.80;;;19.50;70.80;;;;;;5067263;28;20205;-75
2022/09/13 00:08:21;;;;;;;1.70;0.90;;;19.50;70.80;;;;;;5065301;28;20199;-75
2022/09/13 00:10:50;;;;;;;1.97;1.10;;;19.50;70.70;;;;;;5064326;28;20281;-74
2022/09/13 00:13:18;;;;;;;1.63;1.10;;;19.40;70.80;;;;;;5068516;28;20538;-75
2022/09/13 00:15:49;;;;;;;3.33;1.20;;;19.40;70.80;;;;;;5067172;28;20642;-75
2022/09/13 00:18:18;;;;;;;2.33;1.23;;;19.40;71.00;;;;;;5064010;28;20679;-75
2022/09/13 00:20:47;;;;;;;2.40;1.13;;;19.40;71.10;;;;;;5069776;28;20600;-75
2022/09/13 00:23:15;;;;;;;3.20;1.20;;;19.40;71.10;;;;;;5065651;28;20225;-75
2022/09/13 00:25:43;;;;;;;3.20;1.00;;;19.30;71.10;;;;;;5069685;28;20233;-75
2022/09/13 00:28:13;;;;;;;2.20;1.10;;;19.30;71.10;;;;;;5065324;28;20250;-75
2022/09/13 00:30:41;;;;;;;1.93;1.13;;;19.30;71.20;;;;;;5063650;28;20634;-75
2022/09/13 00:33:10;;;;;;;2.30;1.10;;;19.30;71.30;;;;;;5072167;28;20550;-74
2022/09/13 00:35:38;;;;;;;4.00;1.10;;;19.30;71.40;;;;;;5069860;28;20210;-74
2022/09/13 00:38:06;;;;;;;2.33;1.27;;;19.30;71.60;;;;;;5067497;28;20194;-75
2022/09/13 00:40:38;;;;;;;3.77;1.30;;;19.20;71.90;;;;;;5065395;28;20187;-74
2022/09/13 00:43:12;;;;;;;4.30;1.20;;;19.20;72.00;;;;;;5063004;28;20730;-74
2022/09/13 00:45:42;;;;;;;2.00;1.30;;;19.10;71.90;;;;;;5063744;28;20186;-75
2022/09/13 00:48:19;;;;;;;3.57;1.43;;;19.10;72.10;;;;;;5064327;28;20195;-76
2022/09/13 00:50:51;;;;;;;2.33;1.30;;;19.10;72.20;;;;;;5067393;28;20214;-75
2022/09/13 00:53:24;;;;;;;2.20;1.20;;;19.00;72.20;;;;;;5064453;28;20218;-75
2022/09/13 00:55:57;;;;;;;3.57;1.30;;;19.00;72.40;;;;;;5063000;28;20244;-77
2022/09/13 00:58:29;;;;;;;4.93;1.67;;;19.00;72.70;;;;;;5060509;28;20509;-76
2022/09/13 01:01:02;;;;;;;5.17;1.63;;;19.00;72.80;;;;;;5056352;28;20283;-74
2022/09/13 01:03:33;;;;;;;7.07;1.43;;;18.90;72.70;;;;;;5070304;28;20237;-74
2022/09/13 01:06:07;;;;;;;3.23;1.70;;;18.90;72.80;;;;;;5065698;28;20194;-74
2022/09/13 01:08:39;;;;;;;3.63;1.50;;;18.90;72.90;;;;;;5068834;28;20240;-75
2022/09/13 01:11:12;;;;;;;2.80;1.57;;;18.90;72.90;;;;;;5065734;28;20190;-75
2022/09/13 01:13:41;;;;;;;8.23;1.70;;;18.80;73.10;;;;;;5067478;28;20253;-74
2022/09/13 01:16:11;;;;;;;2.70;1.60;;;18.80;73.10;;;;;;5064577;28;20610;-74
2022/09/13 01:18:39;;;;;;;2.10;1.47;;;18.80;73.10;;;;;;5064343;28;20201;-74
2022/09/13 01:21:46;;;;;;;8.80;1.50;;;18.80;73.10;;;;;;5066803;28;20224;-74
2022/09/13 01:24:40;;;;;;;3.43;1.33;;;18.70;73.20;;;;;;5062200;28;20275;-74
2022/09/13 01:27:23;;;;;;;2.33;1.40;;;18.70;73.10;;;;;;5063508;28;20236;-75
2022/09/13 01:30:16;;;;;;;3.80;1.80;;;18.70;73.20;;;;;;5065572;28;20230;-78
2022/09/13 01:33:16;;;;;;;4.30;1.30;;;18.70;73.40;;;;;;5069451;28;20580;-76
2022/09/13 01:36:01;;;;;;;5.17;1.80;;;18.60;73.40;;;;;;5066056;28;20280;-75
2022/09/13 01:38:53;;;;;;;2.13;1.43;;;18.60;73.50;;;;;;5063115;28;20583;-76
2022/09/13 01:41:37;;;;;;;3.83;1.90;;;18.60;73.60;;;;;;5065698;28;20643;-77
2022/09/13 01:44:12;;;;;;;2.70;1.53;;;18.60;73.60;;;;;;5064211;28;20190;-76
2022/09/13 01:46:49;;;;;;;4.30;1.77;;;18.50;73.60;;;;;;5060924;28;20203;-75
2022/09/13 01:49:22;;;;;;;5.27;1.93;;;18.50;73.70;;;;;;5063960;28;20232;-76
2022/09/13 01:51:56;;;;;;;3.67;2.17;;;18.50;73.70;;;;;;5062019;28;20197;-75
2022/09/13 01:54:34;;;;;;;3.33;2.13;;;18.50;73.80;;;;;;5066089;28;20308;-76
2022/09/13 01:57:11;;;;;;;4.83;2.20;;;18.40;73.70;;;;;;5065810;28;20194;-76
2022/09/13 01:59:49;;;;;;;3.30;1.73;;;18.40;73.80;;;;;;5064470;28;20217;-76
2022/09/13 02:02:23;;;;;;;3.60;2.03;;;18.40;73.80;;;;;;5062650;28;20243;-76
2022/09/13 02:04:56;;;;;;;6.57;2.20;;;18.40;73.90;;;;;;5068928;28;20204;-75
2022/09/13 02:07:29;;;;;;;4.37;2.30;;;18.40;74.00;;;;;;5067373;28;20244;-75
2022/09/13 02:10:02;;;;;;;5.13;2.00;;;18.30;74.10;;;;;;5062660;28;20256;-76
2022/09/13 02:12:34;;;;;;;3.00;2.10;;;18.30;74.30;;;;;;5061800;28;20193;-75
2022/09/13 02:15:10;;;;;;;4.83;2.00;;;18.20;74.30;;;;;;5061119;28;20241;-75
2022/09/13 02:17:44;;;;;;;5.83;2.70;;;18.20;74.40;;;;;;5066197;28;20186;-76
2022/09/13 02:20:17;;;;;;;3.60;2.33;;;18.20;74.50;;;;;;5066448;28;20186;-76
2022/09/13 02:22:50;;;;;;;11.57;2.43;;;18.10;74.60;;;;;;5067702;28;21234;-76
2022/09/13 02:25:22;;;;;;;4.93;2.20;;;18.10;74.60;;;;;;5072133;28;20221;-75
2022/09/13 02:28:01;;;;;;;9.40;2.37;;;18.00;74.60;;;;;;5065260;28;20257;-75
2022/09/13 02:30:35;;;;;;;4.33;2.00;;;18.00;74.60;;;;;;5071235;28;20226;-75
2022/09/13 02:33:09;;;;;;;6.07;2.57;;;18.00;74.70;;;;;;5066819;28;20193;-75
2022/09/13 02:35:41;;;;;;;5.60;2.23;;;18.00;74.70;;;;;;5069190;28;20758;-75
2022/09/13 02:38:18;;;;;;;3.53;2.30;;;18.00;74.90;;;;;;5068697;28;20716;-75
2022/09/13 02:40:53;;;;;;;5.57;2.10;;;17.90;74.80;;;;;;5070670;28;20280;-76
2022/09/13 02:43:28;;;;;;;5.30;2.73;;;17.90;74.90;;;;;;5063529;28;20226;-76
2022/09/13 02:46:09;;;;;;;4.27;2.50;;;17.80;75.10;;;;;;5068598;28;20198;-75
2022/09/13 02:48:49;;;;;;;3.87;2.37;;;17.80;75.10;;;;;;5066341;28;20217;-75
2022/09/13 02:51:25;;;;;;;4.60;2.33;;;17.70;75.10;;;;;;5065542;28;20682;-75
2022/09/13 02:54:02;;;;;;;7.67;2.40;;;17.70;75.20;;;;;;5064854;28;20194;-75
2022/09/13 02:56:37;;;;;;;6.87;2.97;;;17.70;75.20;;;;;;5068607;28;20218;-77
2022/09/13 02:59:13;;;;;;;5.83;3.03;;;17.70;75.20;;;;;;5060613;28;20217;-75
2022/09/13 03:01:45;;;;;;;5.10;2.60;;;17.60;75.30;;;;;;5063735;28;20338;-75
2022/09/13 03:04:15;;;;;;;8.60;3.37;;;17.60;75.50;;;;;;5066256;28;20182;-75
2022/09/13 03:06:43;;;;;;;7.37;3.60;;;17.60;75.80;;;;;;5067555;28;20237;-74
2022/09/13 03:09:12;;;;;;;7.70;3.40;;;17.50;75.80;;;;;;5070374;28;20731;-75
2022/09/13 03:11:56;;;;;;;11.10;3.23;;;17.50;75.80;;;;;;5067126;28;20190;-75
2022/09/13 03:14:37;;;;;;;7.77;3.73;;;17.40;75.70;;;;;;5068491;28;20199;-75
2022/09/13 03:17:19;;;;;;;8.00;3.33;;;17.40;75.80;;;;;;5065818;28;20344;-75
2022/09/13 03:20:09;;;;;;;7.47;3.50;;;17.40;75.80;;;;;;5070287;28;20323;-74
2022/09/13 03:23:08;;;;;;;7.77;3.70;;;17.30;75.80;;;;;;5059975;28;20663;-74
2022/09/13 03:26:02;;;;;;;5.20;2.87;;;17.30;75.80;;;;;;5070038;28;20229;-76
2022/09/13 03:28:37;;;;;;;7.17;3.80;;;17.30;75.80;;;;;;5065566;28;20222;-75
2022/09/13 03:31:10;;;;;;;12.27;4.30;;;17.30;75.80;;;;;;5059418;28;20260;-75
2022/09/13 03:33:46;;;;;;;11.57;4.07;;;17.30;75.80;;;;;;5067882;28;20666;-75
2022/09/13 03:36:21;;;;;;;9.33;3.60;;;17.30;75.80;;;;;;5068693;28;20252;-76
2022/09/13 03:39:00;;;;;;;7.87;3.77;;;17.20;75.80;;;;;;5067075;28;20213;-75
2022/09/13 03:41:34;;;;;;;7.00;3.80;;;17.20;75.80;;;;;;5067385;28;20218;-75
2022/09/13 03:44:06;;;;;;;7.80;3.57;;;17.20;76.00;;;;;;5065581;28;20277;-75
2022/09/13 03:46:38;;;;;;;7.23;3.30;;;17.20;76.00;;;;;;5064229;28;20604;-75
2022/09/13 03:49:09;;;;;;;10.40;3.47;;;17.10;76.00;;;;;;5061848;28;20240;-75
2022/09/13 03:51:40;;;;;;;6.60;3.30;;;17.10;76.10;;;;;;5066066;28;20229;-75
2022/09/13 03:54:11;;;;;;;14.33;4.33;;;17.10;77.00;;;;;;5066063;28;20194;-75
2022/09/13 03:56:39;;;;;;;8.03;3.80;;;17.10;76.20;;;;;;5068086;28;20260;-75
2022/09/13 03:59:08;;;;;;;7.67;3.50;;;17.10;76.30;;;;;;5072111;28;20592;-75
2022/09/13 04:01:36;;;;;;;7.27;4.37;;;17.10;76.30;;;;;;5069303;28;20190;-75
2022/09/13 04:04:04;;;;;;;7.87;3.93;;;17.00;76.30;;;;;;5069526;28;20268;-76
2022/09/13 04:06:32;;;;;;;7.70;3.60;;;17.00;76.30;;;;;;5068377;28;20286;-75
2022/09/13 04:09:02;;;;;;;8.30;3.80;;;17.00;76.50;;;;;;5069007;28;20195;-74
2022/09/13 04:11:32;;;;;;;9.90;3.80;;;17.00;76.50;;;;;;5069303;28;20194;-74
2022/09/13 04:14:02;;;;;;;7.67;3.77;;;16.90;76.50;;;;;;5062962;28;20229;-75
2022/09/13 04:16:30;;;;;;;5.73;3.33;;;16.90;76.50;;;;;;5068737;28;20306;-74
2022/09/13 04:18:59;;;;;;;10.00;3.93;;;16.90;76.60;;;;;;5063475;28;20292;-74
2022/09/13 04:21:27;;;;;;;7.63;4.00;;;16.90;76.60;;;;;;5072473;28;20225;-74
2022/09/13 04:23:55;;;;;;;9.53;3.60;;;16.90;76.80;;;;;;5065989;28;20210;-74
2022/09/13 04:26:25;;;;;;;6.30;4.03;;;16.90;76.90;;;;;;5068017;28;20680;-75
2022/09/13 04:28:53;;;;;;;9.70;4.00;;;16.90;77.10;;;;;;5068172;28;20222;-75
2022/09/13 04:31:22;;;;;;;8.63;3.63;;;16.90;77.20;;;;;;5072767;28;20186;-75
2022/09/13 04:33:50;;;;;;;9.07;3.37;;;16.80;77.20;;;;;;5069830;28;20194;-74
2022/09/13 04:36:20;;;;;;;6.37;3.50;;;16.90;77.30;;;;;;5069779;28;20321;-75
2022/09/13 04:38:48;;;;;;;9.83;3.50;;;16.90;77.40;;;;;;5072902;28;20910;-75
2022/09/13 04:41:16;;;;;;;13.50;4.10;;;16.90;77.40;;;;;;5060847;28;20218;-75
2022/09/13 04:43:49;;;;;;;5.80;2.87;;;16.90;77.70;;;;;;5071819;28;20191;-75
2022/09/13 04:46:17;;;;;;;8.87;3.60;;;16.90;77.70;;;;;;5066869;28;20187;-75
2022/09/13 04:48:49;;;;;;;14.00;3.90;;;16.90;77.80;;;;;;5065108;28;20535;-75
2022/09/13 04:51:18;;;;;;;10.20;5.20;;;16.90;77.80;;;;;;5071715;28;20194;-75
2022/09/13 04:53:47;;;;;;;17.10;7.07;;;17.00;78.10;;;;;;5070857;28;20289;-75
2022/09/13 04:56:16;;;;;;;10.80;4.93;;;17.00;78.20;;;;;;5071155;28;20256;-75
2022/09/13 04:58:46;;;;;;;9.77;4.50;;;17.00;78.30;;;;;;5070854;28;20215;-77
2022/09/13 05:01:14;;;;;;;12.23;4.43;;;17.00;78.30;;;;;;5068614;28;20686;-75
2022/09/13 05:03:43;;;;;;;7.30;3.23;;;17.00;78.30;;;;;;5069681;28;20639;-75
2022/09/13 05:06:13;;;;;;;5.23;2.57;;;17.10;78.40;;;;;;5072079;28;20599;-75
2022/09/13 05:08:41;;;;;;;8.13;3.13;;;17.10;78.60;;;;;;5069435;28;20222;-75
2022/09/13 05:11:10;;;;;;;4.80;2.80;;;17.20;78.50;;;;;;5066352;28;20233;-74
2022/09/13 05:13:38;;;;;;;4.87;3.10;;;17.20;78.60;;;;;;5065080;28;20195;-74
2022/09/13 05:16:08;;;;;;;14.00;4.43;;;17.20;78.60;;;;;;5068154;28;20327;-75
2022/09/13 05:18:37;;;;;;;8.37;3.47;;;17.20;78.60;;;;;;5069126;28;20191;-75
2022/09/13 05:21:11;;;;;;;7.30;3.73;;;17.30;78.60;;;;;;5069391;28;20255;-75
2022/09/13 05:23:40;;;;;;;12.37;3.20;;;17.30;78.70;;;;;;5066092;28;20249;-76
2022/09/13 05:26:08;;;;;;;11.27;3.17;;;17.40;78.60;;;;;;5062977;28;20221;-77
2022/09/13 05:28:39;;;;;;;7.37;3.13;;;17.50;78.80;;;;;;5061324;28;20292;-79
2022/09/13 05:31:13;;;;;;;11.40;4.00;;;17.50;78.90;;;;;;5068479;28;20651;-74
2022/09/13 05:33:42;;;;;;;11.20;3.37;;;17.60;78.90;;;;;;5068940;28;20190;-75
2022/09/13 05:36:10;;;;;;;10.87;3.40;;;17.60;78.90;;;;;;5071035;28;20257;-75
2022/09/13 05:38:38;;;;;;;11.77;3.23;;;17.70;78.90;;;;;;5070868;28;20268;-76
2022/09/13 05:41:07;;;;;;;5.40;3.03;;;17.80;78.90;;;;;;5070992;28;20194;-75
2022/09/13 05:43:36;;;;;;;11.27;2.83;;;17.80;78.80;;;;;;5070212;28;20667;-75
2022/09/13 05:46:06;;;;;;;7.00;2.87;;;17.90;78.70;;;;;;5069699;28;20237;-75
2022/09/13 05:48:37;;;;;;;11.70;2.43;;;18.00;78.70;;;;;;5066022;28;20705;-75
2022/09/13 05:51:07;;;;;;;15.50;3.40;;;18.00;78.50;;;;;;5066182;28;20269;-75
2022/09/13 05:53:36;;;;;;;7.40;2.70;;;18.10;78.40;;;;;;5070299;28;20659;-76
2022/09/13 05:56:05;;;;;;;9.53;3.10;;;18.20;78.40;;;;;;5068403;28;20751;-75
2022/09/13 05:58:34;;;;;;;6.13;2.50;;;18.20;78.30;;;;;;5062446;28;20783;-75
2022/09/13 06:01:02;;;;;;;9.83;2.67;;;18.30;78.20;;;;;;5064113;28;20214;-74
2022/09/13 06:03:30;;;;;;;7.23;2.70;;;18.40;78.90;;;;;;5067760;28;20224;-75
2022/09/13 06:06:00;;;;;;;4.37;2.10;;;18.40;78.10;;;;;;5070347;28;20568;-76
2022/09/13 06:08:30;;;;;;;2.90;1.80;;;18.50;78.10;;;;;;5068185;28;20222;-75
2022/09/13 06:11:00;;;;;;;3.23;1.70;;;18.60;78.10;;;;;;5069452;28;20186;-75
2022/09/13 06:13:30;;;;;;;5.87;1.87;;;18.70;78.00;;;;;;5070734;28;20285;-75
2022/09/13 06:16:00;;;;;;;4.80;1.70;;;18.80;78.00;;;;;;5068168;28;20194;-75
2022/09/13 06:18:28;;;;;;;4.97;1.90;;;18.90;77.90;;;;;;5071497;28;20190;-75
2022/09/13 06:21:03;;;;;;;6.33;1.83;;;19.00;77.70;;;;;;5071614;28;20225;-76
2022/09/13 06:23:32;;;;;;;4.93;1.90;;;19.10;77.60;;;;;;5070054;28;20224;-75
2022/09/13 06:26:02;;;;;;;3.97;1.93;;;19.20;77.60;;;;;;5065845;28;20225;-76
2022/09/13 06:28:30;;;;;;;3.03;1.90;;;19.30;77.50;;;;;;5074695;28;20777;-75
2022/09/13 06:31:06;;;;;;;9.23;2.00;;;19.30;77.40;;;;;;5067767;28;20191;-75
2022/09/13 06:33:35;;;;;;;6.77;2.00;;;19.40;77.30;;;;;;5063974;28;20220;-75
2022/09/13 06:36:07;;;;;;;10.77;1.80;;;19.50;77.30;;;;;;5063938;28;20194;-75
2022/09/13 06:38:35;;;;;;;9.97;2.37;;;19.50;77.20;;;;;;5070576;28;20218;-76
2022/09/13 06:41:06;;;;;;;4.80;2.00;;;19.60;77.10;;;;;;5069391;28;20733;-75
2022/09/13 06:43:34;;;;;;;5.73;1.73;;;19.70;77.00;;;;;;5071078;28;20190;-76
2022/09/13 06:46:05;;;;;;;17.07;2.27;;;19.80;77.80;;;;;;5071172;28;20244;-75
2022/09/13 06:48:35;;;;;;;5.60;1.73;;;19.80;76.80;;;;;;5065260;28;20247;-76
2022/09/13 06:51:07;;;;;;;2.87;1.80;;;19.90;76.60;;;;;;5065337;28;20230;-75
2022/09/13 06:53:37;;;;;;;12.60;2.73;;;19.90;76.60;;;;;;5067513;28;20225;-74
2022/09/13 06:56:08;;;;;;;3.77;2.10;;;20.00;77.40;;;;;;5072178;28;20237;-75
2022/09/13 06:58:37;;;;;;;5.20;1.90;;;20.10;76.60;;;;;;5066815;28;20245;-76
2022/09/13 07:01:10;;;;;;;7.93;2.30;;;20.10;76.50;;;;;;5062772;28;20186;-75
2022/09/13 07:03:40;;;;;;;4.15;2.28;;;20.20;76.30;;;;;;5070242;28;20198;-75
2022/09/13 07:06:12;;;;;;;6.82;2.10;;;20.20;76.30;;;;;;5068069;28;20195;-75
2022/09/13 07:08:41;;;;;;;3.83;2.03;;;20.30;76.30;;;;;;5070263;28;20269;-76
2022/09/13 07:11:11;;;;;;;5.47;2.30;;;20.30;76.00;;;;;;5076541;28;20571;-76
2022/09/13 07:13:40;;;;;;;5.73;2.30;;;20.40;76.10;;;;;;5074376;28;20194;-75
2022/09/13 07:16:10;;;;;;;6.07;2.47;;;20.50;76.10;;;;;;5066869;28;20194;-75
2022/09/13 07:18:38;;;;;;;5.15;2.00;;;20.60;76.10;;;;;;5072060;28;20576;-76
2022/09/13 07:21:09;;;;;;;4.85;2.17;;;20.70;76.00;;;;;;5067694;28;20182;-76
2022/09/13 07:23:39;;;;;;;4.90;2.30;;;20.70;75.80;;;;;;5073942;28;20186;-76
2022/09/13 07:26:09;;;;;;;4.30;1.83;;;20.70;75.80;;;;;;5066198;28;20214;-76
2022/09/13 07:28:39;;;;;;;5.60;2.40;;;20.80;75.80;;;;;;5069420;28;20699;-75
2022/09/13 07:31:09;;;;;;;8.82;2.30;;;20.80;75.80;;;;;;5062341;28;20218;-75
2022/09/13 07:33:38;;;;;;;10.18;2.65;;;20.90;75.80;;;;;;5073396;28;20195;-75
2022/09/13 07:36:07;;;;;;;5.18;2.08;;;20.90;75.60;;;;;;5070469;28;20229;-76
2022/09/13 07:38:39;;;;;;;4.72;2.10;;;21.00;75.70;;;;;;5072750;28;20241;-76
2022/09/13 07:41:10;;;;;;;5.93;1.90;;;21.00;75.50;;;;;;5073045;28;20711;-75
2022/09/13 07:43:38;;;;;;;7.82;2.50;;;21.00;75.80;;;;;;5073302;28;20186;-77
2022/09/13 07:46:08;;;;;;;7.57;2.47;;;21.00;75.70;;;;;;5071604;28;20213;-78
2022/09/13 07:48:39;;;;;;;17.83;3.65;;;21.00;75.50;;;;;;5072549;28;20260;-78
2022/09/13 07:51:09;;;;;;;5.13;2.25;;;21.00;75.40;;;;;;5071881;28;20223;-78
2022/09/13 07:53:40;;;;;;;3.80;2.30;;;21.00;75.50;;;;;;5072375;28;20826;-77
2022/09/13 07:56:10;;;;;;;3.40;1.77;;;21.00;75.50;;;;;;5072293;28;20594;-79
2022/09/13 07:58:39;;;;;;;2.97;1.88;;;21.10;75.10;;;;;;5071972;28;20218;-79
2022/09/13 08:01:10;;;;;;;4.70;2.08;;;21.10;75.10;;;;;;5072109;28;20237;-78
2022/09/13 08:03:39;;;;;;;5.13;2.13;;;21.20;75.00;;;;;;5074103;28;20265;-78
2022/09/13 08:06:08;;;;;;;5.57;2.40;;;21.30;74.90;;;;;;5070693;28;20222;-78
2022/09/13 08:08:38;;;;;;;3.70;1.98;;;21.40;75.00;;;;;;5071210;28;20220;-78
2022/09/13 08:11:07;;;;;;;2.85;1.92;;;21.40;74.30;;;;;;5069459;28;20190;-78
2022/09/13 08:13:35;;;;;;;5.53;2.20;;;21.40;73.80;;;;;;5067997;28;20285;-80
2022/09/13 08:16:05;;;;;;;3.30;1.83;;;21.40;74.10;;;;;;5070025;28;20195;-78
2022/09/13 08:18:34;;;;;;;5.00;1.95;;;21.50;74.20;;;;;;5066081;28;20217;-78
2022/09/13 08:21:02;;;;;;;4.90;1.80;;;21.50;74.10;;;;;;5071288;28;20221;-77
2022/09/13 08:23:30;;;;;;;4.47;1.83;;;21.60;74.20;;;;;;5068503;28;20277;-77
2022/09/13 08:26:03;;;;;;;4.53;1.90;;;21.60;73.70;;;;;;5069755;28;20226;-78
2022/09/13 08:28:31;;;;;;;6.03;1.88;;;21.70;73.60;;;;;;5068832;28;20280;-79
2022/09/13 08:31:04;;;;;;;5.60;1.55;;;21.80;73.30;;;;;;5066241;28;20616;-78
2022/09/13 08:33:33;;;;;;;9.02;2.00;;;21.90;72.20;;;;;;5071912;28;20698;-76
2022/09/13 08:36:02;;;;;;;2.38;1.38;;;21.90;70.30;;;;;;5072308;28;20187;-76
2022/09/13 08:38:31;;;;;;;7.82;1.95;;;22.00;68.60;;;;;;5070704;28;20268;-78
2022/09/13 08:41:04;;;;;;;6.93;1.40;;;22.00;67.80;;;;;;5061672;28;20602;-75
2022/09/13 08:43:42;;;;;;;3.38;1.65;;;22.00;66.30;;;;;;5061013;28;20343;-76
2022/09/13 08:46:22;;;;;;;3.22;1.63;;;22.10;65.90;;;;;;5070129;28;20194;-76
2022/09/13 08:48:55;;;;;;;3.97;1.45;;;22.10;66.20;;;;;;5069722;28;20583;-76
2022/09/13 08:51:30;;;;;;;2.55;1.25;;;22.20;65.70;;;;;;5069380;28;20218;-76
2022/09/13 08:53:59;;;;;;;2.50;1.27;;;22.20;64.20;;;;;;5066552;28;20236;-75
2022/09/13 08:56:36;;;;;;;4.15;1.45;;;22.20;62.80;;;;;;5068212;28;20721;-75
2022/09/13 08:59:17;;;;;;;8.40;1.50;;;22.30;62.70;;;;;;5067136;28;20268;-78
2022/09/13 09:01:55;;;;;;;2.92;1.20;;;22.30;62.30;;;;;;5068168;28;20186;-75
2022/09/13 09:04:39;;;;;;;4.57;1.50;;;22.40;63.00;;;;;;5069729;28;20235;-75
2022/09/13 09:07:13;;;;;;;3.83;1.30;;;22.50;62.40;;;;;;5065642;28;20476;-74
2022/09/13 09:09:45;;;;;;;3.10;1.50;;;22.50;61.70;;;;;;5070659;28;20186;-75
2022/09/13 09:12:22;;;;;;;5.55;2.03;;;22.50;60.50;;;;;;5068939;28;20636;-74
2022/09/13 09:15:00;;;;;;;4.53;1.60;;;22.60;60.30;;;;;;5074640;28;20194;-74
2022/09/13 09:17:34;;;;;;;2.22;1.33;;;22.60;59.90;;;;;;5067220;28;20692;-75
2022/09/13 09:20:16;;;;;;;6.30;1.55;;;22.60;60.00;;;;;;5069325;28;20243;-75
2022/09/13 09:22:46;;;;;;;2.95;1.23;;;22.70;59.80;;;;;;5069915;28;20685;-74
2022/09/13 09:25:14;;;;;;;2.63;1.55;;;22.70;58.40;;;;;;5068516;28;20190;-74
2022/09/13 09:27:44;;;;;;;3.17;1.30;;;22.70;58.40;;;;;;5069488;28;20276;-75
2022/09/13 09:30:14;;;;;;;2.78;1.30;;;22.80;58.40;;;;;;5068594;28;20651;-74
2022/09/13 09:33:11;;;;;;;2.25;1.20;;;22.80;58.20;;;;;;5063795;28;20272;-75
2022/09/13 09:35:51;;;;;;;3.45;1.20;;;22.90;57.50;;;;;;5067007;28;20186;-74
2022/09/13 09:38:35;;;;;;;1.55;1.00;;;22.90;57.50;;;;;;5064898;28;20622;-76
2022/09/13 09:41:07;;;;;;;5.40;1.40;;;23.00;58.00;;;;;;5061285;28;20681;-74
2022/09/13 09:43:44;;;;;;;6.45;1.20;;;23.10;57.80;;;;;;5069192;28;20187;-76
2022/09/13 09:46:17;;;;;;;2.50;1.20;;;23.10;57.70;;;;;;5073961;28;20200;-77
2022/09/13 09:48:51;;;;;;;4.35;1.20;;;23.20;57.40;;;;;;5063914;28;20409;-75
2022/09/13 09:51:34;;;;;;;3.20;1.10;;;23.20;57.20;;;;;;5066534;28;20198;-74
2022/09/13 09:54:05;;;;;;;3.72;1.35;;;23.30;57.20;;;;;;5070521;28;20226;-75
2022/09/13 09:56:35;;;;;;;5.70;1.17;;;23.30;56.80;;;;;;5061176;28;20616;-76
2022/09/13 09:59:24;;;;;;;4.80;1.30;;;23.40;56.50;;;;;;5066932;28;20268;-75
2022/09/13 10:01:56;;;;;;;1.50;1.13;;;23.50;57.10;;;;;;5063642;28;20685;-74
2022/09/13 10:04:25;;;;;;;2.17;1.00;;;23.60;57.00;;;;;;5069368;28;20339;-75
2022/09/13 10:07:11;;;;;;;3.35;1.02;;;23.60;56.30;;;;;;5068069;28;20678;-74
2022/09/13 10:09:57;;;;;;;2.72;1.20;;;23.60;55.10;;;;;;5059751;28;20243;-74
2022/09/13 10:12:32;;;;;;;3.65;1.10;;;23.70;55.70;;;;;;5069068;28;20197;-75
2022/09/13 10:15:16;;;;;;;5.25;1.20;;;23.70;55.20;;;;;;5068266;28;20232;-74
2022/09/13 10:18:02;;;;;;;2.67;1.25;;;23.70;55.40;;;;;;5066364;28;20293;-74
2022/09/13 10:20:30;;;;;;;2.42;1.10;;;23.70;55.00;;;;;;5064810;28;20658;-74
2022/09/13 10:23:26;;;;;;;1.48;1.17;;;23.80;55.50;;;;;;5062633;28;20237;-74
2022/09/13 10:26:14;;;;;;;1.52;0.80;;;23.90;54.40;;;;;;5011911;28;20252;-75
2022/09/13 10:28:47;;;;;;;2.53;0.70;;;24.00;54.90;;;;;;5051176;28;20220;-76
2022/09/13 10:31:19;;;;;;;4.30;0.90;;;24.00;54.20;;;;;;5063045;28;20277;-76
2022/09/13 10:33:58;;;;;;;4.57;1.08;;;24.10;53.40;;;;;;5067104;28;20283;-73
2022/09/13 10:36:31;;;;;;;4.18;1.00;;;24.20;52.50;;;;;;5059550;28;20186;-75
2022/09/13 10:39:22;;;;;;;2.97;0.90;;;24.20;52.90;;;;;;5058098;28;21016;-75
2022/09/13 10:41:53;;;;;;;3.90;0.80;;;24.30;52.80;;;;;;5057980;28;20830;-77
2022/09/13 10:44:32;;;;;;;4.35;1.10;;;24.40;52.60;;;;;;5062219;28;20201;-75
2022/09/13 10:47:06;;;;;;;3.53;0.95;;;24.50;52.90;;;;;;5068478;28;20712;-75
2022/09/13 10:49:53;;;;;;;2.15;0.80;;;24.50;52.60;;;;;;5070103;28;20246;-74
2022/09/13 10:52:33;;;;;;;1.87;1.10;;;24.50;52.40;;;;;;5064611;28;20474;-78
2022/09/13 10:55:39;;;;;;;1.33;0.80;;;24.60;52.10;;;;;;5067454;28;20248;-75
2022/09/13 10:58:17;;;;;;;3.00;0.95;;;24.60;52.50;;;;;;5063948;28;20722;-74
2022/09/13 11:01:33;;;;;;;4.85;1.02;;;24.70;52.60;;;;;;5074498;28;20202;-74
2022/09/13 11:04:40;;;;;;;1.25;0.75;;;24.80;52.10;;;;;;5042883;28;20293;-75
2022/09/13 11:07:23;;;;;;;1.67;0.70;;;24.80;51.50;;;;;;5067471;28;20190;-74
2022/09/13 11:10:02;;;;;;;1.73;1.00;;;24.80;50.00;;;;;;5067478;28;20518;-74
2022/09/13 11:12:41;;;;;;;3.53;1.15;;;24.80;49.60;;;;;;5066728;28;20206;-74
2022/09/13 11:15:23;;;;;;;1.10;0.85;;;24.80;50.30;;;;;;5069317;28;20194;-74
2022/09/13 11:18:09;;;;;;;0.63;0.60;;;24.80;50.30;;;;;;5067912;28;20213;-75
2022/09/13 11:20:47;;;;;;;1.77;0.52;;;24.80;49.90;;;;;;5070957;28;20245;-76
2022/09/13 11:24:05;;;;;;;1.27;0.98;;;24.90;50.30;;;;;;5071391;28;20191;-76
2022/09/13 11:26:49;;;;;;;1.70;0.90;;;25.00;50.40;;;;;;4989163;28;20276;-75
2022/09/13 11:29:33;;;;;;;8.02;0.70;;;25.00;49.00;;;;;;5056822;28;20225;-77
2022/09/13 11:32:14;;;;;;;1.55;0.90;;;25.00;49.20;;;;;;5057944;28;20191;-75
2022/09/13 11:34:51;;;;;;;4.70;0.88;;;25.10;49.40;;;;;;5070851;28;20198;-76
2022/09/13 11:37:40;;;;;;;1.55;0.75;;;25.20;49.80;;;;;;5071556;28;20186;-76
2022/09/13 11:40:28;;;;;;;1.38;0.70;;;25.30;49.70;;;;;;5069104;28;20717;-77
2022/09/13 11:43:16;;;;;;;1.88;0.98;;;25.40;50.00;;;;;;5068355;28;20218;-74
2022/09/13 11:45:48;;;;;;;4.88;0.90;;;25.40;49.40;;;;;;5069959;28;20178;-76
2022/09/13 11:48:36;;;;;;;2.83;0.80;;;25.50;49.10;;;;;;5068214;28;20561;-77
2022/09/13 11:51:12;;;;;;;1.27;0.80;;;25.60;48.80;;;;;;5069823;28;20298;-76
2022/09/13 11:53:53;;;;;;;1.13;0.70;;;25.50;48.40;;;;;;5061195;28;20222;-75
2022/09/13 11:56:31;;;;;;;1.83;0.80;;;25.50;48.60;;;;;;5068086;28;20221;-75
2022/09/13 11:59:08;;;;;;;2.80;1.00;;;25.60;48.80;;;;;;5065804;28;20225;-76
2022/09/13 12:01:48;;;;;;;1.83;0.93;;;25.60;49.00;;;;;;5070738;28;20193;-76
2022/09/13 12:04:22;;;;;;;2.58;0.80;;;25.60;48.40;;;;;;5068755;28;20563;-76
2022/09/13 12:06:57;;;;;;;4.47;1.10;;;25.60;48.60;;;;;;5073150;28;20281;-75
2022/09/13 12:09:29;;;;;;;2.95;0.80;;;25.60;48.80;;;;;;5070497;28;20741;-75
2022/09/13 12:12:05;;;;;;;3.38;0.90;;;25.50;48.90;;;;;;5068308;28;20236;-76
2022/09/13 12:14:47;;;;;;;1.73;1.00;;;25.50;49.00;;;;;;5063626;28;20263;-76
2022/09/13 12:17:25;;;;;;;4.57;0.80;;;25.50;49.10;;;;;;5065660;28;20234;-75
2022/09/13 12:19:57;;;;;;;1.10;0.77;;;25.50;49.20;;;;;;5064615;28;20293;-76
2022/09/13 12:22:29;;;;;;;1.50;0.80;;;25.50;49.30;;;;;;5068859;28;20243;-75
2022/09/13 12:25:02;;;;;;;2.78;1.02;;;25.40;49.20;;;;;;5064718;28;20195;-76
2022/09/13 12:27:38;;;;;;;1.77;0.90;;;25.40;49.20;;;;;;5066892;28;20763;-75
2022/09/13 12:30:15;;;;;;;1.65;0.95;;;25.40;49.20;;;;;;5069603;28;20718;-76
2022/09/13 12:32:44;;;;;;;1.20;0.70;;;25.40;49.40;;;;;;5064782;28;20246;-76
2022/09/13 12:35:21;;;;;;;1.50;0.88;;;25.40;49.10;;;;;;5059015;28;20222;-76
2022/09/13 12:38:27;;;;;;;1.38;0.73;;;25.50;48.80;;;;;;5066273;28;20187;-77
2022/09/13 12:41:10;;;;;;;2.15;0.90;;;25.50;48.50;;;;;;4983480;28;20277;-75
2022/09/13 12:44:03;;;;;;;1.83;0.90;;;25.60;48.30;;;;;;4985236;28;20231;-77
2022/09/13 12:46:45;;;;;;;1.48;0.90;;;25.60;48.40;;;;;;5047955;28;20268;-76
2022/09/13 12:49:33;;;;;;;2.95;0.60;;;25.60;48.00;;;;;;5063685;28;20288;-76
2022/09/13 12:52:26;;;;;;;1.73;0.80;;;25.60;48.40;;;;;;5056585;28;21509;-76
2022/09/13 12:55:38;;;;;;;2.03;0.80;;;25.60;48.40;;;;;;5068425;28;20584;-76
2022/09/13 12:58:39;;;;;;;4.55;1.10;;;25.70;48.30;;;;;;5067098;28;20194;-75
2022/09/13 13:01:24;;;;;;;3.92;0.90;;;25.70;48.00;;;;;;5070019;28;20218;-77
2022/09/13 13:03:55;;;;;;;2.13;1.02;;;25.70;48.10;;;;;;5066436;28;20209;-75
2022/09/13 13:06:32;;;;;;;1.90;0.85;;;25.70;48.10;;;;;;5063504;28;20237;-76
2022/09/13 13:09:04;;;;;;;1.05;0.80;;;25.80;47.80;;;;;;5065349;28;20193;-75
2022/09/13 13:11:44;;;;;;;2.40;0.80;;;25.80;47.90;;;;;;5064296;28;20225;-76
2022/09/13 13:14:45;;;;;;;1.60;0.80;;;25.90;47.40;;;;;;5056781;28;20615;-77
2022/09/13 13:17:39;;;;;;;4.28;0.70;;;26.00;47.30;;;;;;5063583;28;20225;-76
2022/09/13 13:20:44;;;;;;;1.35;0.80;;;26.10;47.00;;;;;;5067925;28;20720;-76
2022/09/13 13:23:23;;;;;;;2.30;0.70;;;26.20;46.80;;;;;;5065845;28;20193;-75
2022/09/13 13:26:30;;;;;;;1.73;0.80;;;26.40;46.80;;;;;;5063882;28;20187;-75